Time;durP1;ratioP1;P1;durP2;ratioP2;P2;SDS_P1;SDS_P2;PMS_P1;PMS_P2;Temp;Humidity;BMP_temperature;BMP_pressure;BME280_temperature;BME280_humidity;BME280_pressure;Samples;Min_cycle;Max_cycle;Signal;HPM_P1;HPM_P2
2024/01/17 00:00:23;;;;;;;12.13;5.38;;;;;;;-2.81;60.28;95782.84;5012148;28;20030;-81
2024/01/17 00:02:49;;;;;;;10.93;5.85;;;;;;;-2.77;59.62;95785.78;5007968;28;20503;-81
2024/01/17 00:05:14;;;;;;;15.35;7.22;;;;;;;-2.71;60.52;95777.34;5002698;28;20611;-81
2024/01/17 00:07:39;;;;;;;11.65;6.68;;;;;;;-2.68;59.97;95789.69;5006234;28;20037;-86
2024/01/17 00:10:06;;;;;;;9.18;4.20;;;;;;;-2.59;59.76;95792.84;5001069;28;20072;-84
2024/01/17 00:12:31;;;;;;;6.85;3.78;;;;;;;-2.56;60.25;95783.03;4998224;28;20125;-85
2024/01/17 00:15:00;;;;;;;7.60;3.65;;;;;;;-2.35;58.92;95799.09;4988586;28;20171;-86
2024/01/17 00:17:25;;;;;;;9.80;3.90;;;;;;;-2.29;57.34;95799.09;5006428;28;20125;-85
2024/01/17 00:19:50;;;;;;;10.98;4.30;;;;;;;-2.33;58.53;95782.66;5022052;28;20134;-85
2024/01/17 00:22:16;;;;;;;12.38;5.28;;;;;;;-2.35;57.70;95768.53;5011242;28;20469;-85
2024/01/17 00:24:42;;;;;;;11.13;5.60;;;;;;;-2.33;58.23;95771.66;5005558;28;20099;-86
2024/01/17 00:27:08;;;;;;;11.48;5.45;;;;;;;-2.45;58.25;95774.81;5001736;28;20038;-85
2024/01/17 00:29:33;;;;;;;9.93;4.65;;;;;;;-2.54;58.41;95768.31;4987450;28;20033;-87
2024/01/17 00:31:59;;;;;;;10.50;4.35;;;;;;;-2.60;57.95;95760.69;5010078;28;20045;-83
2024/01/17 00:34:24;;;;;;;7.85;4.40;;;;;;;-2.57;58.76;95761.09;4993327;28;20041;-85
2024/01/17 00:36:49;;;;;;;9.75;4.28;;;;;;;-2.57;59.08;95760.28;5009518;28;20547;-86
2024/01/17 00:39:16;;;;;;;10.73;4.53;;;;;;;-2.39;58.97;95765.59;4981861;28;20644;-86
2024/01/17 00:41:42;;;;;;;9.75;4.20;;;;;;;-2.32;57.93;95760.47;5000690;28;20029;-86
2024/01/17 00:44:08;;;;;;;10.63;5.90;;;;;;;-2.38;57.26;95754.41;5004092;28;20104;-86
2024/01/17 00:46:33;;;;;;;9.25;5.20;;;;;;;-2.48;57.03;95754.03;5017700;28;20468;-86
2024/01/17 00:48:59;;;;;;;10.20;4.88;;;;;;;-2.60;57.34;95753.84;4989865;28;20411;-84
2024/01/17 00:51:24;;;;;;;13.10;5.10;;;;;;;-2.82;59.11;95732.84;5004067;28;20514;-84
2024/01/17 00:53:51;;;;;;;11.10;5.25;;;;;;;-2.58;58.12;95756.19;5007560;28;20033;-84
2024/01/17 00:56:16;;;;;;;9.30;5.15;;;;;;;-2.63;58.70;95746.56;5007555;28;20108;-85
2024/01/17 00:58:41;;;;;;;10.48;4.93;;;;;;;-2.65;59.20;95735.81;4999055;28;20125;-86
2024/01/17 01:01:07;;;;;;;10.38;4.88;;;;;;;-2.58;59.50;95726.38;5005769;28;20523;-85
2024/01/17 01:03:32;;;;;;;11.98;6.00;;;;;;;-2.48;59.76;95729.31;5002472;28;20037;-85
2024/01/17 01:05:57;;;;;;;12.05;4.88;;;;;;;-2.47;59.25;95720.72;5006177;28;20045;-86
2024/01/17 01:08:23;;;;;;;12.43;5.95;;;;;;;-2.43;59.31;95725.38;5018556;28;20040;-85
2024/01/17 01:10:48;;;;;;;12.25;5.50;;;;;;;-2.40;59.91;95709.72;5035233;28;20057;-83
2024/01/17 01:13:13;;;;;;;15.57;8.57;;;;;;;-2.37;60.25;95709.31;4996114;28;20029;-85
2024/01/17 01:15:39;;;;;;;16.20;7.15;;;;;;;-2.32;59.93;95699.31;4995253;28;20064;-85
2024/01/17 01:18:04;;;;;;;16.13;6.97;;;;;;;-2.24;58.94;95706.75;4980144;28;20052;-80
2024/01/17 01:20:30;;;;;;;17.70;7.97;;;;;;;-2.26;59.85;95703.63;5013725;28;20033;-81
2024/01/17 01:22:55;;;;;;;16.13;6.75;;;;;;;-2.28;59.81;95695.38;5030302;28;20072;-80
2024/01/17 01:25:21;;;;;;;15.98;6.07;;;;;;;-2.22;60.37;95693.81;5024687;28;20462;-81
2024/01/17 01:27:46;;;;;;;12.07;5.68;;;;;;;-2.19;59.54;95686.53;5014501;28;20030;-81
2024/01/17 01:30:12;;;;;;;14.80;6.43;;;;;;;-2.19;60.58;95686.53;5023456;28;20048;-81
2024/01/17 01:32:37;;;;;;;13.35;6.32;;;;;;;-2.19;60.30;95684.00;5012076;28;20033;-81
2024/01/17 01:35:03;;;;;;;13.50;6.22;;;;;;;-2.11;60.89;95688.06;4994764;28;20056;-81
2024/01/17 01:37:28;;;;;;;14.90;6.70;;;;;;;-2.07;60.05;95679.06;4999391;28;20038;-81
2024/01/17 01:39:56;;;;;;;14.13;5.57;;;;;;;-2.08;60.18;95673.16;5005864;28;20386;-81
2024/01/17 01:42:21;;;;;;;13.55;6.03;;;;;;;-2.00;60.71;95673.94;5032778;28;20041;-81
2024/01/17 01:44:47;;;;;;;13.05;6.10;;;;;;;-2.03;61.09;95672.56;5004320;28;20387;-81
2024/01/17 01:47:13;;;;;;;13.20;5.75;;;;;;;-2.05;60.14;95666.09;5011677;28;20414;-81
2024/01/17 01:49:39;;;;;;;14.68;5.72;;;;;;;-1.92;60.01;95666.03;5007358;28;20431;-81
2024/01/17 01:52:06;;;;;;;13.88;5.55;;;;;;;-1.91;60.41;95662.50;5031698;28;20337;-81
2024/01/17 01:54:32;;;;;;;12.27;6.30;;;;;;;-1.90;59.78;95653.88;5009978;28;20037;-81
2024/01/17 01:56:59;;;;;;;11.68;5.20;;;;;;;-1.89;60.39;95668.19;5009313;28;20706;-81
2024/01/17 01:59:24;;;;;;;13.15;6.45;;;;;;;-1.78;59.72;95666.75;5002161;28;20071;-81
2024/01/17 02:01:50;;;;;;;11.20;4.82;;;;;;;-1.78;60.11;95656.53;5016702;28;20037;-81
2024/01/17 02:04:16;;;;;;;10.85;4.82;;;;;;;-1.81;60.19;95639.88;4995730;28;20033;-81
2024/01/17 02:06:42;;;;;;;12.52;5.25;;;;;;;-1.67;60.00;95644.94;5011868;28;20041;-85
2024/01/17 02:09:08;;;;;;;10.93;5.03;;;;;;;-1.62;59.96;95640.78;5009576;28;20576;-83
2024/01/17 02:11:34;;;;;;;11.38;4.82;;;;;;;-1.55;60.50;95633.09;5004386;28;20441;-85
2024/01/17 02:13:59;;;;;;;13.07;5.43;;;;;;;-1.52;59.95;95636.00;5004671;28;20180;-85
2024/01/17 02:16:25;;;;;;;9.48;4.70;;;;;;;-1.48;60.60;95621.06;5022766;28;20045;-85
2024/01/17 02:18:50;;;;;;;12.60;5.40;;;;;;;-1.47;59.99;95622.63;5010099;28;20033;-85
2024/01/17 02:21:16;;;;;;;11.38;5.68;;;;;;;-1.41;60.18;95610.81;5022470;28;20030;-86
2024/01/17 02:23:41;;;;;;;10.93;5.07;;;;;;;-1.38;59.35;95618.06;5003517;28;20534;-86
2024/01/17 02:26:07;;;;;;;9.75;4.53;;;;;;;-1.48;59.29;95605.75;5015695;28;20061;-85
2024/01/17 02:28:32;;;;;;;9.68;4.93;;;;;;;-1.67;60.12;95604.88;4986559;28;20474;-81
2024/01/17 02:30:58;;;;;;;10.02;5.45;;;;;;;-1.68;60.25;95594.88;5011881;28;20041;-81
2024/01/17 02:33:24;;;;;;;9.60;4.63;;;;;;;-1.69;61.25;95576.25;5000489;28;20494;-81
2024/01/17 02:35:49;;;;;;;11.95;5.88;;;;;;;-1.63;60.88;95577.94;4999076;28;20647;-81
2024/01/17 02:38:14;;;;;;;14.85;6.82;;;;;;;-1.59;60.86;95565.59;5019319;28;20615;-80
2024/01/17 02:40:40;;;;;;;18.77;8.13;;;;;;;-1.56;60.93;95563.41;4998134;28;20038;-81
2024/01/17 02:43:05;;;;;;;18.98;8.25;;;;;;;-1.48;59.94;95564.91;4993985;28;20105;-80
2024/01/17 02:45:31;;;;;;;16.52;7.45;;;;;;;-1.48;60.18;95564.91;5030469;28;20429;-81
2024/01/17 02:47:56;;;;;;;17.80;7.25;;;;;;;-1.52;59.51;95548.44;5022429;28;20037;-81
2024/01/17 02:50:23;;;;;;;17.40;7.03;;;;;;;-1.36;60.22;95570.88;5022968;28;20057;-80
2024/01/17 02:52:49;;;;;;;12.52;6.30;;;;;;;-1.35;59.57;95569.13;5015752;28;20037;-80
2024/01/17 02:55:17;;;;;;;10.63;5.53;;;;;;;-1.34;59.51;95557.91;4993130;28;20083;-82
2024/01/17 02:57:43;;;;;;;16.48;6.70;;;;;;;-1.32;59.38;95554.19;5006713;28;20508;-80
2024/01/17 03:00:09;;;;;;;13.18;5.97;;;;;;;-1.39;59.50;95538.16;4992038;28;20056;-81
2024/01/17 03:02:35;;;;;;;12.88;5.72;;;;;;;-1.37;60.16;95533.59;5027515;28;20090;-81
2024/01/17 03:05:03;;;;;;;19.42;7.18;;;;;;;-1.28;60.63;95541.00;5000992;28;20033;-81
2024/01/17 03:07:29;;;;;;;14.68;6.95;;;;;;;-1.29;60.22;95537.66;4990417;28;20053;-81
2024/01/17 03:09:55;;;;;;;11.02;5.50;;;;;;;-1.32;60.26;95531.22;5002636;28;22916;-81
2024/01/17 03:12:20;;;;;;;15.15;5.95;;;;;;;-1.36;60.04;95521.63;4987687;28;20417;-81
2024/01/17 03:14:46;;;;;;;11.98;5.38;;;;;;;-1.26;59.93;95528.81;5015136;28;20079;-81
2024/01/17 03:17:14;;;;;;;13.20;5.88;;;;;;;-1.38;60.12;95514.16;5016486;28;20179;-86
2024/01/17 03:19:40;;;;;;;10.27;5.28;;;;;;;-1.29;60.60;95522.34;5005167;28;20112;-86
2024/01/17 03:22:05;;;;;;;12.00;5.75;;;;;;;-1.28;60.61;95518.78;5001467;28;20164;-85
2024/01/17 03:24:30;;;;;;;11.18;6.10;;;;;;;-1.22;60.40;95515.38;4991323;28;20048;-85
2024/01/17 03:26:56;;;;;;;11.77;5.13;;;;;;;-1.16;60.13;95514.56;5008752;28;20033;-85
2024/01/17 03:29:21;;;;;;;10.25;4.95;;;;;;;-1.11;59.78;95498.59;5004854;28;20760;-86
2024/01/17 03:31:47;;;;;;;7.82;4.43;;;;;;;-1.01;60.44;95501.44;5004605;28;20037;-86
2024/01/17 03:34:13;;;;;;;12.95;5.00;;;;;;;-1.03;59.59;95480.44;4978960;28;20117;-85
2024/01/17 03:36:38;;;;;;;8.27;4.43;;;;;;;-0.95;58.86;95481.94;5018254;28;20064;-86
2024/01/17 03:39:04;;;;;;;7.53;4.22;;;;;;;-1.06;58.91;95460.44;5009709;28;20041;-86
2024/01/17 03:41:29;;;;;;;11.68;4.10;;;;;;;-1.09;58.87;95463.41;4983754;28;20034;-86
2024/01/17 03:43:57;;;;;;;7.28;3.88;;;;;;;-1.10;59.31;95463.63;5009228;28;20029;-84
2024/01/17 03:46:22;;;;;;;6.78;3.80;;;;;;;-1.10;59.74;95451.63;4996763;28;20045;-85
2024/01/17 03:48:47;;;;;;;10.90;5.07;;;;;;;-1.07;59.97;95438.44;5009799;28;20041;-81
2024/01/17 03:51:13;;;;;;;12.55;5.78;;;;;;;-1.01;60.80;95442.69;5015783;28;20425;-81
2024/01/17 03:53:38;;;;;;;10.98;4.93;;;;;;;-0.95;60.32;95430.84;4986770;28;20163;-81
2024/01/17 03:56:04;;;;;;;9.43;5.00;;;;;;;-0.90;60.32;95425.09;5011943;28;20037;-81
2024/01/17 03:58:29;;;;;;;14.95;5.80;;;;;;;-0.80;60.71;95427.91;5006156;28;20038;-81
2024/01/17 04:00:55;;;;;;;11.30;5.88;;;;;;;-0.73;60.77;95415.84;5006993;28;20520;-81
2024/01/17 04:03:20;;;;;;;16.35;6.97;;;;;;;-0.71;60.93;95411.28;5003853;28;20040;-81
2024/01/17 04:05:45;;;;;;;13.23;5.60;;;;;;;-0.68;60.63;95400.63;4997321;28;20558;-81
2024/01/17 04:08:12;;;;;;;13.48;6.43;;;;;;;-0.66;60.54;95385.84;4999072;28;20037;-81
2024/01/17 04:10:37;;;;;;;13.23;6.60;;;;;;;-0.54;60.67;95380.00;5006080;28;20069;-80
2024/01/17 04:13:03;;;;;;;13.98;6.75;;;;;;;-0.54;61.41;95370.56;5031180;28;20131;-81
2024/01/17 04:15:29;;;;;;;15.57;6.70;;;;;;;-0.58;61.30;95361.78;5014701;28;20044;-81
2024/01/17 04:17:54;;;;;;;15.90;7.35;;;;;;;-0.56;61.15;95364.91;4996919;28;20034;-81
2024/01/17 04:20:20;;;;;;;15.93;7.38;;;;;;;-0.58;60.60;95357.44;5005679;28;20422;-81
2024/01/17 04:22:45;;;;;;;16.50;8.13;;;;;;;-0.50;61.11;95355.56;4985964;28;20032;-80
2024/01/17 04:25:11;;;;;;;18.00;7.97;;;;;;;-0.42;60.60;95350.13;5008864;28;20512;-81
2024/01/17 04:27:37;;;;;;;12.77;6.55;;;;;;;-0.36;60.37;95346.72;4989898;28;20037;-81
2024/01/17 04:30:04;;;;;;;13.98;6.32;;;;;;;-0.37;60.90;95337.47;5010216;28;20040;-80
2024/01/17 04:32:32;;;;;;;13.65;6.70;;;;;;;-0.29;61.59;95332.03;5008244;28;20037;-81
2024/01/17 04:34:57;;;;;;;11.50;5.82;;;;;;;-0.32;61.76;95319.69;5025041;28;20433;-81
2024/01/17 04:37:23;;;;;;;12.63;6.13;;;;;;;-0.23;61.14;95322.69;5008657;28;20041;-80
2024/01/17 04:39:48;;;;;;;13.02;6.70;;;;;;;-0.14;61.64;95316.25;4989681;28;20026;-81
2024/01/17 04:42:14;;;;;;;10.63;5.80;;;;;;;-0.07;61.39;95308.47;4996826;28;20044;-81
2024/01/17 04:44:39;;;;;;;13.30;6.18;;;;;;;-0.03;61.64;95297.56;4993966;28;20309;-81
2024/01/17 04:47:05;;;;;;;13.35;6.22;;;;;;;0.10;61.42;95304.22;4976537;28;20175;-81
2024/01/17 04:49:30;;;;;;;16.77;7.47;;;;;;;0.07;61.41;95289.34;5011108;28;20033;-80
2024/01/17 04:51:56;;;;;;;16.27;7.60;;;;;;;0.16;60.66;95290.53;5028323;28;20021;-80
2024/01/17 04:54:30;;;;;;;11.75;6.65;;;;;;;0.15;62.13;95276.19;5018839;28;20112;-81
2024/01/17 04:56:56;;;;;;;8.25;4.30;;;;;;;0.18;62.51;95264.72;4983081;28;20044;-81
2024/01/17 04:59:21;;;;;;;14.07;7.05;;;;;;;0.31;61.59;95273.91;5018925;28;20045;-83
2024/01/17 05:01:47;;;;;;;11.35;5.68;;;;;;;0.35;61.83;95268.13;4999706;28;20033;-85
2024/01/17 05:04:12;;;;;;;11.45;5.22;;;;;;;0.48;61.67;95274.78;5007707;28;20067;-85
2024/01/17 05:06:38;;;;;;;10.55;5.38;;;;;;;0.51;61.74;95269.19;5001990;28;20029;-85
2024/01/17 05:09:07;;;;;;;10.02;5.15;;;;;;;0.61;62.62;95267.84;5002266;28;20413;-84
2024/01/17 05:11:33;;;;;;;13.27;5.65;;;;;;;0.65;62.17;95264.63;4979330;28;20041;-85
2024/01/17 05:13:58;;;;;;;9.70;4.85;;;;;;;0.72;62.44;95255.00;4996389;28;20094;-84
2024/01/17 05:16:24;;;;;;;10.68;4.90;;;;;;;0.81;61.82;95250.28;5001818;28;20050;-85
2024/01/17 05:18:50;;;;;;;9.77;4.90;;;;;;;0.78;61.87;95243.06;4996862;28;20037;-82
2024/01/17 05:21:15;;;;;;;9.45;4.47;;;;;;;0.85;62.44;95248.03;5000629;28;20057;-84
2024/01/17 05:23:41;;;;;;;9.18;4.40;;;;;;;0.83;62.08;95232.91;5012843;28;20038;-84
2024/01/17 05:26:06;;;;;;;11.88;5.45;;;;;;;0.90;63.06;95225.84;4999101;28;20496;-84
2024/01/17 05:28:32;;;;;;;8.38;4.57;;;;;;;0.94;62.52;95213.34;5009875;28;20034;-84
2024/01/17 05:30:57;;;;;;;10.27;4.97;;;;;;;0.97;62.83;95209.53;5002231;28;20033;-85
2024/01/17 05:33:23;;;;;;;9.38;4.97;;;;;;;1.03;62.72;95206.84;5024302;28;20033;-84
2024/01/17 05:35:49;;;;;;;11.25;5.15;;;;;;;1.04;63.37;95194.78;5007318;28;20022;-85
2024/01/17 05:38:15;;;;;;;10.32;4.90;;;;;;;1.13;62.61;95203.63;4982987;28;20404;-84
2024/01/17 05:40:40;;;;;;;10.10;5.22;;;;;;;1.16;62.52;95192.94;5009807;28;20485;-85
2024/01/17 05:43:06;;;;;;;7.95;4.35;;;;;;;1.16;63.41;95181.91;5000118;28;20034;-85
2024/01/17 05:45:31;;;;;;;10.93;5.38;;;;;;;1.14;62.66;95179.56;4995525;28;20531;-84
2024/01/17 05:47:57;;;;;;;10.35;5.25;;;;;;;1.12;63.02;95171.34;5029278;28;20160;-84
2024/01/17 05:50:22;;;;;;;8.20;4.60;;;;;;;1.19;63.44;95171.97;4994648;28;20540;-84
2024/01/17 05:52:48;;;;;;;9.32;4.80;;;;;;;1.21;63.50;95169.94;5020575;28;20026;-85
2024/01/17 05:55:15;;;;;;;11.05;4.82;;;;;;;1.24;62.61;95172.03;5012019;28;20040;-83
2024/01/17 05:57:41;;;;;;;8.57;4.50;;;;;;;1.19;63.53;95160.94;5020545;28;20029;-85
2024/01/17 06:00:10;;;;;;;11.90;5.88;;;;;;;1.22;63.89;95160.47;4998868;28;20477;-85
2024/01/17 06:02:36;;;;;;;9.50;5.88;;;;;;;1.18;63.86;95149.88;5006235;28;20558;-84
2024/01/17 06:05:03;;;;;;;11.93;6.13;;;;;;;1.20;64.02;95152.22;5007056;28;20533;-85
2024/01/17 06:07:29;;;;;;;15.45;7.45;;;;;;;1.17;64.28;95147.59;5017340;28;20033;-84
2024/01/17 06:09:54;;;;;;;13.13;7.50;;;;;;;1.02;63.69;95130.97;4997723;28;20076;-80
2024/01/17 06:12:20;;;;;;;17.25;8.65;;;;;;;1.05;63.93;95129.72;4990729;28;20069;-81
2024/01/17 06:14:47;;;;;;;15.20;8.05;;;;;;;1.03;63.79;95121.47;5006130;28;20662;-81
2024/01/17 06:17:13;;;;;;;17.10;8.93;;;;;;;1.03;63.81;95124.03;4987616;28;20405;-80
2024/01/17 06:19:40;;;;;;;17.77;7.85;;;;;;;0.96;64.62;95115.75;4998892;28;20022;-81
2024/01/17 06:22:05;;;;;;;15.00;7.53;;;;;;;1.04;64.69;95112.78;5012425;28;20024;-81
2024/01/17 06:24:31;;;;;;;12.20;6.40;;;;;;;0.92;64.50;95100.84;4994199;28;20038;-80
2024/01/17 06:26:56;;;;;;;12.43;6.32;;;;;;;0.84;65.32;95093.56;4982795;28;20038;-82
2024/01/17 06:29:22;;;;;;;12.18;6.70;;;;;;;0.87;64.93;95087.94;4978856;28;20038;-81
2024/01/17 06:31:47;;;;;;;11.73;6.15;;;;;;;0.91;64.42;95093.41;4999894;28;20089;-82
2024/01/17 06:34:12;;;;;;;12.77;7.45;;;;;;;0.91;65.30;95086.50;5013670;28;20029;-82
2024/01/17 06:36:39;;;;;;;11.82;6.07;;;;;;;0.88;64.77;95079.25;4995188;28;20029;-82
2024/01/17 06:39:05;;;;;;;10.10;5.75;;;;;;;1.03;64.89;95085.59;4989758;28;20030;-81
2024/01/17 06:41:30;;;;;;;12.57;6.63;;;;;;;1.03;64.46;95080.47;5021584;28;20083;-82
2024/01/17 06:43:56;;;;;;;71.97;37.60;;;;;;;1.06;65.56;95074.88;4982405;28;20391;-82
2024/01/17 06:46:21;;;;;;;35.65;20.00;;;;;;;1.13;64.81;95075.50;4996020;28;20033;-82
2024/01/17 06:48:46;;;;;;;20.35;13.70;;;;;;;1.09;65.73;95064.16;5010964;28;20057;-82
2024/01/17 06:51:12;;;;;;;15.30;8.68;;;;;;;1.17;66.02;95068.91;4995698;28;20041;-82
2024/01/17 06:53:38;;;;;;;21.77;12.70;;;;;;;1.18;65.07;95056.84;5026712;28;20038;-82
2024/01/17 06:56:04;;;;;;;15.63;8.95;;;;;;;1.21;65.75;95062.28;5013274;28;20103;-83
2024/01/17 06:58:30;;;;;;;17.23;9.80;;;;;;;1.29;65.48;95049.06;4991062;28;20041;-82
2024/01/17 07:00:55;;;;;;;15.75;9.15;;;;;;;1.36;65.84;95051.44;5024274;28;20041;-83
2024/01/17 07:03:21;;;;;;;16.50;8.40;;;;;;;1.46;65.19;95055.94;4998464;28;20063;-82
2024/01/17 07:05:46;;;;;;;15.82;9.80;;;;;;;1.45;65.59;95046.66;5010890;28;20056;-83
2024/01/17 07:08:12;;;;;;;11.77;7.70;;;;;;;1.48;65.66;95044.41;4987694;28;20033;-84
2024/01/17 07:10:38;;;;;;;13.27;7.38;;;;;;;1.53;65.57;95037.81;4989211;28;20429;-84
2024/01/17 07:13:04;;;;;;;80.85;31.38;;;;;;;1.53;66.02;95036.00;4992347;28;20026;-84
2024/01/17 07:15:30;;;;;;;64.60;26.83;;;;;;;1.42;65.26;95018.94;5015182;28;20060;-84
2024/01/17 07:17:55;;;;;;;47.42;19.90;;;;;;;1.61;65.32;95032.22;4997045;28;20069;-84
2024/01/17 07:20:21;;;;;;;23.85;12.13;;;;;;;1.58;65.68;95014.78;4996687;28;20493;-84
2024/01/17 07:22:46;;;;;;;18.45;9.43;;;;;;;1.64;65.25;95018.94;4995466;28;20036;-84
2024/01/17 07:25:13;;;;;;;12.88;6.85;;;;;;;1.54;65.88;95001.63;5006143;28;20091;-84
2024/01/17 07:27:45;;;;;;;15.25;6.75;;;;;;;1.67;66.49;95016.66;4990624;28;20045;-84
2024/01/17 07:30:12;;;;;;;12.32;6.57;;;;;;;1.61;65.73;95004.81;5009803;28;20042;-84
2024/01/17 07:32:38;;;;;;;13.98;7.00;;;;;;;1.49;66.05;95007.50;5017791;28;20038;-84
2024/01/17 07:35:07;;;;;;;14.70;7.47;;;;;;;1.42;66.56;94985.59;4983329;28;20567;-84
2024/01/17 07:37:33;;;;;;;13.55;7.30;;;;;;;1.52;66.05;95000.34;4997891;28;20038;-84
2024/01/17 07:39:59;;;;;;;12.15;6.75;;;;;;;1.58;66.38;94984.75;5024935;28;20033;-84
2024/01/17 07:42:25;;;;;;;12.88;7.10;;;;;;;1.52;66.38;94985.72;4989512;28;20060;-84
2024/01/17 07:44:50;;;;;;;11.68;7.28;;;;;;;1.53;66.52;94979.59;5010770;28;20076;-84
2024/01/17 07:47:16;;;;;;;12.73;7.22;;;;;;;1.38;66.14;94953.78;5015041;28;20065;-84
2024/01/17 07:49:42;;;;;;;13.52;8.00;;;;;;;1.41;66.29;94954.06;4995892;28;20059;-85
2024/01/17 07:52:08;;;;;;;14.35;7.72;;;;;;;1.63;66.31;94971.22;5002159;28;20033;-85
2024/01/17 07:54:33;;;;;;;14.77;7.55;;;;;;;1.57;66.20;94960.13;5013636;28;20037;-84
2024/01/17 07:56:59;;;;;;;15.10;8.32;;;;;;;1.66;66.03;94955.31;4996251;28;20163;-85
2024/01/17 07:59:26;;;;;;;14.98;7.68;;;;;;;1.66;66.17;94952.75;4995522;28;20701;-88
2024/01/17 08:01:52;;;;;;;16.45;7.22;;;;;;;1.56;66.48;94929.59;4985289;28;20030;-86
2024/01/17 08:04:17;;;;;;;12.55;7.18;;;;;;;1.59;65.98;94931.66;4992855;28;20049;-88
2024/01/17 08:06:43;;;;;;;11.25;7.18;;;;;;;1.76;65.94;94954.66;5018484;28;20044;-88
2024/01/17 08:09:20;;;;;;;13.05;6.18;;;;;;;1.82;66.12;94953.69;5001733;28;20037;-89
2024/01/17 08:11:54;;;;;;;13.43;7.85;;;;;;;1.92;65.70;94943.50;5003091;28;20037;-88
2024/01/17 08:14:20;;;;;;;12.48;6.72;;;;;;;1.88;66.05;94932.19;5001463;28;21466;-88
2024/01/17 08:16:46;;;;;;;11.05;6.00;;;;;;;1.92;66.81;94938.38;4985051;28;20042;-88
2024/01/17 08:19:12;;;;;;;11.85;6.50;;;;;;;1.67;65.33;94901.22;5009868;28;20037;-88
2024/01/17 08:21:37;;;;;;;12.32;7.18;;;;;;;1.78;65.86;94906.44;4992661;28;20436;-87
2024/01/17 08:24:03;;;;;;;11.40;6.85;;;;;;;1.64;66.00;94868.34;4999772;28;20034;-88
2024/01/17 08:26:29;;;;;;;12.05;7.15;;;;;;;1.89;66.13;94891.91;4989698;28;20038;-86
2024/01/17 08:28:55;;;;;;;14.35;8.65;;;;;;;1.88;66.33;94893.69;4998204;28;20036;-88
2024/01/17 08:31:20;;;;;;;17.33;9.30;;;;;;;2.02;66.10;94902.53;4981442;28;20041;-86
2024/01/17 08:33:46;;;;;;;18.23;10.10;;;;;;;2.04;66.07;94899.72;4990709;28;20052;-88
2024/01/17 08:36:14;;;;;;;12.00;7.35;;;;;;;1.94;66.19;94868.84;4997335;28;20712;-88
2024/01/17 08:38:40;;;;;;;13.43;8.07;;;;;;;2.03;66.38;94878.41;5001030;28;20121;-88
2024/01/17 08:41:07;;;;;;;12.40;8.73;;;;;;;2.05;66.86;94878.16;4986429;28;20032;-87
2024/01/17 08:43:33;;;;;;;15.68;10.55;;;;;;;1.88;66.29;94844.94;4992179;28;20577;-86
2024/01/17 08:46:00;;;;;;;14.40;7.85;;;;;;;2.04;66.79;94864.56;4997700;28;20718;-87
2024/01/17 08:48:26;;;;;;;14.70;7.38;;;;;;;1.82;66.69;94818.47;5015844;28;20090;-88
2024/01/17 08:50:51;;;;;;;14.73;7.13;;;;;;;2.04;66.84;94845.81;4983301;28;20034;-86
2024/01/17 08:53:17;;;;;;;12.07;6.28;;;;;;;2.08;66.56;94825.56;5012166;28;20037;-88
2024/01/17 08:55:43;;;;;;;12.23;5.75;;;;;;;2.05;66.27;94817.31;5008170;28;20042;-88
2024/01/17 08:58:08;;;;;;;9.48;5.30;;;;;;;2.24;66.52;94838.25;5002701;28;20060;-86
2024/01/17 09:00:34;;;;;;;10.75;5.38;;;;;;;2.23;66.43;94826.41;5000567;28;20026;-87
2024/01/17 09:02:59;;;;;;;12.07;6.93;;;;;;;1.97;66.16;94792.16;5014525;28;20037;-87
2024/01/17 09:05:24;;;;;;;11.75;6.22;;;;;;;2.14;66.39;94804.81;5007373;28;20049;-87
2024/01/17 09:07:50;;;;;;;13.57;6.95;;;;;;;2.25;66.60;94813.34;5012423;28;20485;-88
2024/01/17 09:10:17;;;;;;;17.55;9.40;;;;;;;2.14;66.33;94791.97;5019869;28;20040;-86
2024/01/17 09:12:45;;;;;;;13.75;8.00;;;;;;;2.17;66.26;94780.44;5017738;28;20504;-88
2024/01/17 09:15:11;;;;;;;13.13;7.18;;;;;;;2.12;66.24;94767.56;4987996;28;20436;-87
2024/01/17 09:17:36;;;;;;;23.02;11.57;;;;;;;2.31;66.36;94789.22;5003544;28;20356;-86
2024/01/17 09:20:03;;;;;;;37.83;18.63;;;;;;;2.36;66.92;94786.66;5023028;28;20041;-87
2024/01/17 09:22:29;;;;;;;22.77;11.75;;;;;;;2.46;65.79;94780.81;4988377;28;20039;-87
2024/01/17 09:24:54;;;;;;;28.77;15.57;;;;;;;2.16;66.21;94727.53;5037116;28;20029;-88
2024/01/17 09:27:20;;;;;;;28.60;16.05;;;;;;;2.26;66.29;94732.72;5029303;28;20048;-89
2024/01/17 09:29:45;;;;;;;24.60;13.45;;;;;;;2.53;66.65;94760.03;5013419;28;20389;-88
2024/01/17 09:32:12;;;;;;;23.88;12.00;;;;;;;2.56;66.22;94756.94;5017210;28;20271;-88
2024/01/17 09:34:38;;;;;;;17.77;9.25;;;;;;;2.62;66.16;94756.72;5031607;28;20037;-88
2024/01/17 09:37:05;;;;;;;13.40;7.68;;;;;;;2.61;65.83;94749.25;5016252;28;20409;-87
2024/01/17 09:39:30;;;;;;;11.15;6.68;;;;;;;2.47;66.06;94714.78;5046088;28;20056;-89
2024/01/17 09:41:59;;;;;;;13.88;7.65;;;;;;;2.80;66.30;94752.88;5002444;28;20022;-88
2024/01/17 09:44:27;;;;;;;12.73;6.35;;;;;;;2.59;66.37;94712.78;5024294;28;20058;-89
2024/01/17 09:46:57;;;;;;;12.73;7.38;;;;;;;2.68;66.85;94708.69;5008965;28;20038;-88
2024/01/17 09:49:23;;;;;;;14.02;8.35;;;;;;;2.57;66.73;94691.69;5015093;28;20258;-89
2024/01/17 09:51:50;;;;;;;12.60;7.95;;;;;;;2.63;66.79;94690.69;5022316;28;20029;-88
2024/01/17 09:54:17;;;;;;;16.23;9.43;;;;;;;2.92;66.61;94734.66;5017068;28;20136;-89
2024/01/17 09:56:46;;;;;;;13.82;7.78;;;;;;;2.92;66.92;94724.38;5000370;28;20029;-88
2024/01/17 09:59:16;;;;;;;17.83;10.38;;;;;;;3.00;66.73;94725.69;4987111;28;20033;-88
2024/01/17 10:01:43;;;;;;;15.75;9.18;;;;;;;2.95;66.75;94710.25;5022621;28;20116;-87
2024/01/17 10:04:11;;;;;;;13.50;8.60;;;;;;;3.11;66.60;94718.72;5008903;28;20511;-87
2024/01/17 10:06:37;;;;;;;18.63;9.90;;;;;;;3.08;67.30;94702.00;5010603;28;20040;-88
2024/01/17 10:09:02;;;;;;;28.23;15.23;;;;;;;3.05;66.77;94689.69;5008389;28;20096;-87
2024/01/17 10:11:28;;;;;;;69.82;34.40;;;;;;;3.16;67.10;94704.06;5000110;28;20033;-87
2024/01/17 10:13:53;;;;;;;54.40;25.98;;;;;;;3.25;67.15;94706.13;5034441;28;20068;-87
2024/01/17 10:16:19;;;;;;;45.00;22.48;;;;;;;3.22;66.66;94686.84;5019378;28;20038;-87
2024/01/17 10:18:44;;;;;;;33.30;17.98;;;;;;;3.18;66.67;94668.59;5004431;28;20033;-87
2024/01/17 10:21:10;;;;;;;42.58;21.67;;;;;;;3.33;66.96;94688.38;4980679;28;20494;-86
2024/01/17 10:23:37;;;;;;;37.63;19.23;;;;;;;3.41;66.88;94684.53;5000175;28;20048;-86
2024/01/17 10:26:02;;;;;;;38.13;20.15;;;;;;;3.40;67.14;94675.25;4990791;28;20030;-85
2024/01/17 10:28:33;;;;;;;29.60;16.48;;;;;;;3.54;67.42;94672.91;4994562;28;20041;-85
2024/01/17 10:31:00;;;;;;;22.50;13.57;;;;;;;3.54;67.64;94665.94;4998712;28;20033;-84
2024/01/17 10:33:27;;;;;;;21.98;11.77;;;;;;;3.50;67.63;94641.78;4981611;28;20038;-84
2024/01/17 10:35:52;;;;;;;15.10;9.10;;;;;;;3.67;67.10;94651.78;4989296;28;20580;-83
2024/01/17 10:38:18;;;;;;;19.00;9.82;;;;;;;3.69;68.12;94636.84;5002335;28;20160;-83
2024/01/17 10:40:44;;;;;;;22.70;11.55;;;;;;;3.78;67.47;94641.44;4996482;28;20630;-83
2024/01/17 10:43:10;;;;;;;19.27;12.23;;;;;;;3.83;67.31;94638.84;4973819;28;20030;-83
2024/01/17 10:45:39;;;;;;;20.10;12.45;;;;;;;3.89;67.62;94638.56;5011248;28;20394;-83
2024/01/17 10:48:06;;;;;;;17.15;10.18;;;;;;;3.81;67.05;94628.81;4987758;28;20037;-83
2024/01/17 10:50:32;;;;;;;18.05;11.35;;;;;;;3.90;67.63;94634.94;5023554;28;20147;-81
2024/01/17 10:53:03;;;;;;;15.52;9.38;;;;;;;3.97;67.08;94631.31;4983658;28;20033;-81
2024/01/17 10:55:29;;;;;;;13.50;8.88;;;;;;;3.94;67.36;94625.69;5007107;28;20538;-81
2024/01/17 10:58:01;;;;;;;13.82;8.65;;;;;;;3.94;67.35;94610.22;4991090;28;20033;-81
2024/01/17 11:00:31;;;;;;;14.20;8.00;;;;;;;3.99;67.66;94618.94;4991614;28;20198;-82
2024/01/17 11:02:58;;;;;;;14.30;8.85;;;;;;;3.93;66.70;94598.38;4989846;28;20095;-82
2024/01/17 11:05:26;;;;;;;14.38;7.95;;;;;;;3.98;67.95;94605.31;4988113;28;20038;-83
2024/01/17 11:07:52;;;;;;;22.27;11.63;;;;;;;4.01;66.91;94597.06;5012679;28;20132;-83
2024/01/17 11:10:18;;;;;;;26.33;13.35;;;;;;;4.03;67.29;94596.81;4984728;28;20433;-83
2024/01/17 11:12:45;;;;;;;14.25;8.52;;;;;;;4.06;67.91;94596.25;5010492;28;20048;-84
2024/01/17 11:15:11;;;;;;;16.42;8.27;;;;;;;3.98;67.88;94564.13;5008763;28;20404;-84
2024/01/17 11:17:36;;;;;;;12.35;7.55;;;;;;;4.05;67.92;94562.03;5010021;28;20092;-84
2024/01/17 11:20:08;;;;;;;12.93;7.45;;;;;;;4.16;68.07;94560.13;4996926;28;20127;-81
2024/01/17 11:22:38;;;;;;;11.32;6.88;;;;;;;4.15;67.93;94540.59;4999092;28;20048;-82